createdAt,value
2023-12-13T00:01:04.275Z,50.68
2023-12-13T00:03:30.891Z,50.72
2023-12-13T00:05:57.427Z,50.78
2023-12-13T00:08:24.166Z,50.82
2023-12-13T00:10:50.690Z,50.80
2023-12-13T00:13:17.198Z,50.84
2023-12-13T00:15:43.691Z,50.89
2023-12-13T00:18:10.448Z,50.91
2023-12-13T00:20:38.998Z,50.92
2023-12-13T00:23:05.729Z,50.98
2023-12-13T00:25:32.993Z,50.95
2023-12-13T00:27:59.574Z,50.98
2023-12-13T00:30:26.069Z,50.95
2023-12-13T00:32:52.691Z,51.02
2023-12-13T00:35:19.895Z,51.04
2023-12-13T00:37:47.509Z,51.10
2023-12-13T00:40:14.361Z,51.17
2023-12-13T00:42:40.781Z,51.09
2023-12-13T00:45:07.907Z,51.18
2023-12-13T00:47:34.806Z,51.11
2023-12-13T00:50:01.623Z,51.13
2023-12-13T00:52:28.182Z,51.13
2023-12-13T00:54:54.973Z,51.21
2023-12-13T00:57:21.446Z,51.14
2023-12-13T00:59:48.059Z,51.25
2023-12-13T01:02:16.252Z,51.20
2023-12-13T01:04:45.834Z,51.23
2023-12-13T01:07:12.634Z,51.23
2023-12-13T01:09:40.403Z,51.23
2023-12-13T01:12:07.351Z,51.25
2023-12-13T01:14:34.300Z,51.28
2023-12-13T01:17:01.271Z,51.22
2023-12-13T01:19:27.994Z,51.22
2023-12-13T01:21:54.523Z,51.24
2023-12-13T01:24:20.963Z,51.25
2023-12-13T01:26:47.402Z,51.37
2023-12-13T01:29:13.912Z,51.29
2023-12-13T01:31:40.389Z,51.25
2023-12-13T01:34:07.641Z,51.25
2023-12-13T01:36:34.897Z,51.28
2023-12-13T01:39:01.385Z,51.32
2023-12-13T01:41:27.884Z,51.28
2023-12-13T01:43:54.366Z,51.31
2023-12-13T01:46:20.837Z,51.31
2023-12-13T01:48:47.454Z,51.34
2023-12-13T01:51:14.060Z,51.51
2023-12-13T01:53:40.500Z,51.77
2023-12-13T01:56:07.856Z,51.89
2023-12-13T01:58:38.210Z,51.88
2023-12-13T02:01:05.892Z,51.84
2023-12-13T02:03:34.565Z,51.84
2023-12-13T02:06:04.853Z,51.80
2023-12-13T02:08:31.700Z,51.79
2023-12-13T02:11:01.474Z,51.73
2023-12-13T02:13:28.216Z,51.59
2023-12-13T02:15:54.718Z,51.63
2023-12-13T02:18:21.220Z,51.57
2023-12-13T02:20:49.692Z,51.53
2023-12-13T02:23:16.123Z,51.35
2023-12-13T02:25:57.824Z,51.29
2023-12-13T02:28:24.780Z,51.24
2023-12-13T02:30:51.791Z,51.20
2023-12-13T02:33:18.319Z,51.12
2023-12-13T02:35:45.269Z,51.16
2023-12-13T02:38:11.731Z,51.01
2023-12-13T02:40:38.248Z,51.04
2023-12-13T02:43:04.687Z,51.00
2023-12-13T02:45:32.365Z,51.02
2023-12-13T02:48:01.195Z,50.88
2023-12-13T02:50:27.814Z,50.91
2023-12-13T02:52:54.282Z,50.63
2023-12-13T02:55:20.794Z,50.59
2023-12-13T02:57:47.306Z,50.58
2023-12-13T03:00:14.355Z,50.62
2023-12-13T03:02:41.004Z,50.57
2023-12-13T03:05:07.890Z,50.83
2023-12-13T03:07:34.674Z,50.83
2023-12-13T03:10:01.243Z,50.84
2023-12-13T03:12:27.711Z,50.70
2023-12-13T03:14:54.161Z,50.59
2023-12-13T03:17:20.590Z,50.56
2023-12-13T03:19:47.128Z,50.50
2023-12-13T03:22:13.587Z,50.44
2023-12-13T03:24:40.142Z,50.44
2023-12-13T03:27:06.593Z,50.40
2023-12-13T03:29:33.684Z,50.40
2023-12-13T03:32:00.206Z,50.48
2023-12-13T03:34:26.924Z,50.41
2023-12-13T03:36:53.438Z,50.42
2023-12-13T03:39:19.893Z,50.42
2023-12-13T03:41:46.317Z,50.43
2023-12-13T03:44:12.854Z,50.43
2023-12-13T03:46:41.369Z,50.36
2023-12-13T03:49:08.386Z,50.39
2023-12-13T03:51:35.095Z,50.40
2023-12-13T03:54:02.114Z,50.33
2023-12-13T03:56:30.817Z,50.40
2023-12-13T03:58:57.773Z,50.38
2023-12-13T04:01:24.427Z,50.29
2023-12-13T04:03:51.057Z,50.34
2023-12-13T04:06:17.691Z,50.34
2023-12-13T04:08:44.177Z,50.39
2023-12-13T04:11:10.632Z,50.45
2023-12-13T04:13:37.215Z,50.42
2023-12-13T04:16:03.875Z,50.32
2023-12-13T04:18:30.409Z,50.37
2023-12-13T04:20:57.026Z,50.30
2023-12-13T04:23:23.449Z,50.34
2023-12-13T04:25:50.264Z,50.39
2023-12-13T04:28:16.786Z,50.33
2023-12-13T04:30:43.730Z,50.33
2023-12-13T04:33:10.231Z,50.42
2023-12-13T04:35:37.113Z,50.51
2023-12-13T04:38:03.586Z,50.85
2023-12-13T04:40:30.595Z,50.95
2023-12-13T04:42:57.797Z,51.08
2023-12-13T04:45:24.381Z,51.21
2023-12-13T04:47:50.844Z,51.12
2023-12-13T04:50:17.318Z,51.14
2023-12-13T04:52:43.888Z,51.07
2023-12-13T04:55:10.418Z,51.05
2023-12-13T04:57:37.029Z,51.04
2023-12-13T05:00:06.527Z,50.89
2023-12-13T05:02:32.960Z,50.94
2023-12-13T05:04:59.772Z,50.79
2023-12-13T05:07:28.960Z,50.77
2023-12-13T05:09:56.473Z,50.71
2023-12-13T05:12:23.096Z,50.72
2023-12-13T05:14:49.562Z,50.63
2023-12-13T05:17:16.124Z,50.56
2023-12-13T05:19:42.624Z,50.53
2023-12-13T05:22:09.177Z,50.41
2023-12-13T05:24:36.345Z,50.37
2023-12-13T05:27:02.792Z,50.26
2023-12-13T05:29:29.258Z,50.25
2023-12-13T05:31:57.743Z,50.25
2023-12-13T05:34:24.620Z,50.27
2023-12-13T05:36:51.085Z,50.30
2023-12-13T05:39:17.622Z,50.30
2023-12-13T05:41:44.087Z,50.26
2023-12-13T05:44:10.551Z,50.29
2023-12-13T05:46:37.018Z,50.38
2023-12-13T05:49:04.512Z,50.32
2023-12-13T05:51:31.061Z,50.35
2023-12-13T05:53:58.069Z,50.47
2023-12-13T05:56:24.862Z,50.50
2023-12-13T05:58:51.394Z,50.50
2023-12-13T06:01:18.456Z,50.38
2023-12-13T06:03:44.957Z,50.43
2023-12-13T06:06:11.558Z,50.39
2023-12-13T06:08:38.048Z,50.72
2023-12-13T06:11:04.703Z,50.94
2023-12-13T06:13:31.281Z,51.24
2023-12-13T06:15:57.720Z,51.19
2023-12-13T06:18:24.842Z,50.84
2023-12-13T06:20:52.346Z,50.84
2023-12-13T06:23:18.806Z,50.69
2023-12-13T06:25:45.373Z,50.85
2023-12-13T06:28:12.171Z,50.87
2023-12-13T06:30:38.695Z,50.88
2023-12-13T06:33:05.271Z,50.88
2023-12-13T06:35:31.741Z,50.85
2023-12-13T06:37:58.250Z,50.90
2023-12-13T06:40:25.912Z,50.92
2023-12-13T06:42:52.413Z,50.95
2023-12-13T06:45:19.576Z,50.86
2023-12-13T06:47:46.106Z,51.04
2023-12-13T06:50:12.800Z,51.89
2023-12-13T06:52:39.479Z,51.68
2023-12-13T06:55:06.116Z,51.62
2023-12-13T06:57:32.899Z,51.51
2023-12-13T06:59:59.572Z,51.34
2023-12-13T07:02:26.001Z,51.38
2023-12-13T07:04:52.675Z,51.29
2023-12-13T07:07:19.356Z,51.16
2023-12-13T07:09:46.634Z,51.15
2023-12-13T07:12:13.180Z,51.12
2023-12-13T07:14:39.629Z,51.13
2023-12-13T07:17:06.120Z,51.06
2023-12-13T07:19:32.710Z,51.14
2023-12-13T07:21:59.849Z,50.97
2023-12-13T07:24:26.324Z,51.03
2023-12-13T07:26:52.778Z,51.02
2023-12-13T07:29:20.686Z,51.14
2023-12-13T07:31:49.407Z,51.50
2023-12-13T07:34:16.005Z,51.54
2023-12-13T07:36:46.977Z,51.28
2023-12-13T07:39:13.874Z,50.18
2023-12-13T07:41:40.360Z,49.94
2023-12-13T07:44:07.456Z,50.09
2023-12-13T07:46:34.016Z,50.14
2023-12-13T07:49:04.645Z,49.99
2023-12-13T07:51:32.354Z,50.01
2023-12-13T07:54:00.550Z,50.15
2023-12-13T07:56:28.354Z,50.22
2023-12-13T07:58:58.570Z,50.22
2023-12-13T08:01:27.484Z,52.34
2023-12-13T08:04:00.200Z,53.72
2023-12-13T08:06:26.643Z,53.49
2023-12-13T08:08:53.273Z,52.94
2023-12-13T08:11:22.438Z,51.99
2023-12-13T08:13:49.082Z,51.68
2023-12-13T08:16:15.738Z,51.58
2023-12-13T08:18:42.326Z,51.52
2023-12-13T08:21:09.536Z,51.51
2023-12-13T08:23:36.119Z,51.47
2023-12-13T08:26:02.718Z,51.50
2023-12-13T08:28:30.189Z,51.37
2023-12-13T08:31:04.851Z,51.37
2023-12-13T08:33:44.627Z,51.33
2023-12-13T08:36:12.192Z,51.25
2023-12-13T08:38:40.590Z,51.25
2023-12-13T08:41:08.209Z,51.23
2023-12-13T08:43:34.769Z,51.18
2023-12-13T08:46:01.325Z,51.12
2023-12-13T08:48:27.947Z,51.17
2023-12-13T08:50:55.151Z,51.10
2023-12-13T08:53:21.603Z,51.15
2023-12-13T08:55:48.754Z,51.12
2023-12-13T08:58:15.273Z,51.09
2023-12-13T09:00:41.822Z,51.80
2023-12-13T09:03:09.744Z,51.74
2023-12-13T09:05:36.808Z,51.76
2023-12-13T09:08:04.706Z,51.57
2023-12-13T09:10:31.527Z,51.73
2023-12-13T09:12:58.028Z,51.53
2023-12-13T09:15:24.471Z,51.49
2023-12-13T09:17:50.970Z,51.21
2023-12-13T09:20:17.637Z,50.78
2023-12-13T09:22:44.643Z,50.85
2023-12-13T09:25:14.152Z,51.40
2023-12-13T09:27:40.611Z,51.57
2023-12-13T09:30:10.245Z,51.44
2023-12-13T09:32:37.569Z,51.43
2023-12-13T09:35:13.276Z,51.53
2023-12-13T09:37:40.430Z,51.51
2023-12-13T09:40:13.407Z,51.49
2023-12-13T09:42:49.860Z,51.25
2023-12-13T09:45:31.794Z,50.27
2023-12-13T09:47:58.352Z,50.40
2023-12-13T09:50:25.571Z,50.74
2023-12-13T09:52:56.812Z,50.96
2023-12-13T09:55:23.515Z,51.03
2023-12-13T09:57:50.006Z,51.14
2023-12-13T10:00:16.787Z,51.11
2023-12-13T10:02:43.865Z,51.17
2023-12-13T10:05:11.723Z,51.12
2023-12-13T10:07:39.720Z,51.22
2023-12-13T10:10:07.938Z,51.18
2023-12-13T10:12:35.823Z,51.17
2023-12-13T10:15:13.078Z,51.12
2023-12-13T10:17:41.036Z,51.18
2023-12-13T10:20:08.992Z,51.20
2023-12-13T10:22:36.003Z,51.26
2023-12-13T10:25:03.408Z,51.26
2023-12-13T10:27:29.882Z,51.39
2023-12-13T10:29:56.379Z,51.74
2023-12-13T10:32:23.267Z,51.77
2023-12-13T10:34:49.829Z,52.36
2023-12-13T10:37:16.554Z,52.67
2023-12-13T10:39:44.167Z,52.51
2023-12-13T10:42:10.684Z,52.39
2023-12-13T10:44:38.178Z,52.16
2023-12-13T10:47:08.599Z,52.10
2023-12-13T10:49:36.440Z,52.14
2023-12-13T10:52:04.980Z,52.01
2023-12-13T10:54:31.421Z,52.02
2023-12-13T10:56:57.869Z,51.89
2023-12-13T10:59:26.867Z,51.72
2023-12-13T11:01:53.384Z,51.73
2023-12-13T11:04:20.172Z,51.67
2023-12-13T11:06:47.114Z,51.70
2023-12-13T11:09:22.666Z,51.67
2023-12-13T11:11:49.410Z,51.67
2023-12-13T11:14:17.025Z,51.66
2023-12-13T11:16:47.284Z,51.60
2023-12-13T11:19:16.576Z,51.58
2023-12-13T11:21:46.674Z,51.59
2023-12-13T11:24:17.707Z,51.56
2023-12-13T11:26:47.140Z,51.50
2023-12-13T11:29:33.711Z,51.50
2023-12-13T11:32:01.523Z,51.51
2023-12-13T11:34:49.899Z,51.58
2023-12-13T11:37:16.911Z,51.50
2023-12-13T11:39:43.967Z,51.50
2023-12-13T11:42:11.477Z,51.43
2023-12-13T11:44:38.980Z,51.45
2023-12-13T11:47:11.114Z,51.40
2023-12-13T11:49:37.981Z,51.49
2023-12-13T11:52:05.030Z,51.37
2023-12-13T11:54:31.565Z,51.41
2023-12-13T11:56:58.028Z,51.34
2023-12-13T11:59:26.109Z,51.35
2023-12-13T12:01:52.715Z,51.34
2023-12-13T12:04:22.503Z,51.29
2023-12-13T12:06:49.764Z,51.37
2023-12-13T12:09:17.243Z,51.36
2023-12-13T12:11:44.117Z,51.26
2023-12-13T12:14:11.041Z,51.37
2023-12-13T12:16:37.911Z,51.32
2023-12-13T12:19:05.501Z,51.34
2023-12-13T12:21:34.599Z,51.35
2023-12-13T12:24:01.203Z,51.42
2023-12-13T12:26:27.813Z,51.36
2023-12-13T12:28:54.601Z,51.62
2023-12-13T12:31:21.420Z,53.18
2023-12-13T12:33:55.560Z,52.60
2023-12-13T12:36:22.619Z,52.19
2023-12-13T12:38:49.408Z,51.77
2023-12-13T12:41:16.288Z,51.62
2023-12-13T12:43:42.887Z,52.28
2023-12-13T12:46:09.921Z,52.20
2023-12-13T12:48:36.594Z,52.05
2023-12-13T12:51:03.277Z,51.98
2023-12-13T12:53:29.790Z,51.75
2023-12-13T12:55:57.997Z,51.60
2023-12-13T12:58:24.734Z,51.61
2023-12-13T13:00:51.959Z,51.64
2023-12-13T13:03:18.790Z,51.49
2023-12-13T13:05:46.630Z,51.48
2023-12-13T13:08:16.347Z,51.44
2023-12-13T13:10:42.943Z,51.40
2023-12-13T13:13:09.510Z,51.50
2023-12-13T13:15:36.738Z,51.46
2023-12-13T13:18:03.389Z,51.40
2023-12-13T13:20:29.947Z,51.51
2023-12-13T13:22:56.429Z,51.47
2023-12-13T13:25:22.953Z,51.45
2023-12-13T13:27:49.831Z,51.50
2023-12-13T13:30:16.451Z,51.50
2023-12-13T13:32:43.111Z,51.42
2023-12-13T13:35:09.957Z,51.40
2023-12-13T13:37:37.647Z,51.37
2023-12-13T13:40:05.554Z,51.46
2023-12-13T13:42:32.100Z,51.39
2023-12-13T13:44:58.607Z,51.64
2023-12-13T13:47:25.060Z,51.90
2023-12-13T13:49:51.561Z,52.06
2023-12-13T13:52:18.574Z,52.16
2023-12-13T13:54:45.051Z,51.88
2023-12-13T13:57:11.808Z,51.78
2023-12-13T13:59:38.313Z,51.71
2023-12-13T14:02:04.996Z,51.67
2023-12-13T14:04:31.547Z,51.77
2023-12-13T14:06:58.262Z,51.74
2023-12-13T14:09:24.972Z,51.77
2023-12-13T14:11:51.458Z,51.74
2023-12-13T14:14:17.994Z,51.73
2023-12-13T14:16:44.497Z,51.78
2023-12-13T14:19:12.932Z,51.65
2023-12-13T14:21:39.544Z,51.78
2023-12-13T14:24:08.562Z,51.76
2023-12-13T14:26:35.267Z,51.62
2023-12-13T14:29:01.763Z,51.58
2023-12-13T14:31:28.421Z,51.51
2023-12-13T14:33:54.993Z,51.48
2023-12-13T14:36:21.522Z,51.43
2023-12-13T14:38:48.131Z,51.53
2023-12-13T14:41:14.719Z,51.48
2023-12-13T14:43:41.230Z,51.60
2023-12-13T14:46:07.708Z,51.62
2023-12-13T14:48:34.777Z,51.63
2023-12-13T14:51:01.283Z,51.72
2023-12-13T14:53:27.708Z,51.52
2023-12-13T14:55:54.259Z,51.71
2023-12-13T14:58:20.874Z,51.65
2023-12-13T15:00:47.548Z,51.73
2023-12-13T15:03:14.018Z,51.64
2023-12-13T15:05:41.464Z,51.68
2023-12-13T15:08:09.745Z,51.70
2023-12-13T15:10:36.340Z,51.67
2023-12-13T15:13:04.779Z,51.69
2023-12-13T15:15:32.640Z,51.63
2023-12-13T15:17:59.173Z,51.55
2023-12-13T15:20:25.730Z,51.55
2023-12-13T15:22:52.187Z,51.48
2023-12-13T15:25:18.765Z,51.48
2023-12-13T15:27:45.348Z,51.47
2023-12-13T15:30:13.075Z,51.40
2023-12-13T15:32:44.555Z,51.29
2023-12-13T15:35:11.776Z,51.32
2023-12-13T15:37:38.924Z,51.25
2023-12-13T15:40:06.211Z,51.21
2023-12-13T15:42:32.815Z,51.17
2023-12-13T15:44:59.264Z,51.04
2023-12-13T15:47:25.755Z,51.04
2023-12-13T15:49:52.247Z,51.05
2023-12-13T15:52:18.727Z,51.06
2023-12-13T15:54:45.187Z,50.97
2023-12-13T15:57:11.668Z,50.97
2023-12-13T15:59:38.109Z,50.91
2023-12-13T16:02:05.714Z,50.91
2023-12-13T16:04:34.383Z,50.88
2023-12-13T16:07:01.728Z,50.86
2023-12-13T16:09:28.278Z,50.49
2023-12-13T16:11:55.022Z,49.97
2023-12-13T16:17:49.396Z,50.17
2023-12-13T16:20:16.130Z,49.99
2023-12-13T16:22:42.709Z,50.00
2023-12-13T16:25:09.238Z,50.08
2023-12-13T16:27:35.904Z,50.00
2023-12-13T16:30:02.392Z,50.06
2023-12-13T16:32:29.034Z,50.10
2023-12-13T16:34:55.830Z,50.02
2023-12-13T16:37:24.868Z,50.16
2023-12-13T16:39:51.327Z,50.17
2023-12-13T16:42:20.438Z,50.14
2023-12-13T16:44:46.882Z,50.26
2023-12-13T16:47:13.347Z,50.13
2023-12-13T16:49:43.680Z,50.16
2023-12-13T16:52:10.260Z,50.10
2023-12-13T16:54:36.855Z,50.18
2023-12-13T16:57:03.491Z,50.07
2023-12-13T16:59:29.930Z,50.14
2023-12-13T17:01:56.621Z,49.92
2023-12-13T17:04:23.240Z,50.04
2023-12-13T17:06:49.786Z,50.14
2023-12-13T17:09:16.296Z,50.12
2023-12-13T17:11:42.763Z,50.17
2023-12-13T17:14:09.272Z,50.16
2023-12-13T17:16:36.145Z,50.18
2023-12-13T17:19:03.628Z,50.19
2023-12-13T17:21:30.237Z,50.22
2023-12-13T17:23:56.683Z,50.26
2023-12-13T17:26:23.480Z,50.28
2023-12-13T17:28:49.957Z,50.18
2023-12-13T17:31:16.533Z,50.23
2023-12-13T17:33:43.815Z,50.31
2023-12-13T17:36:10.455Z,50.35
2023-12-13T17:38:40.396Z,50.37
2023-12-13T17:41:07.428Z,50.35
2023-12-13T17:43:34.019Z,50.48
2023-12-13T17:46:00.626Z,50.36
2023-12-13T17:48:27.251Z,50.61
2023-12-13T17:50:53.886Z,51.62
2023-12-13T17:53:20.996Z,51.23
2023-12-13T17:55:47.460Z,51.08
2023-12-13T17:58:14.158Z,50.75
2023-12-13T18:00:40.807Z,50.60
2023-12-13T18:03:07.416Z,50.57
2023-12-13T18:05:33.997Z,50.48
2023-12-13T18:08:00.668Z,50.09
2023-12-13T18:10:27.235Z,50.17
2023-12-13T18:12:53.700Z,50.17
2023-12-13T18:15:20.175Z,50.12
2023-12-13T18:17:46.620Z,50.14
2023-12-13T18:20:19.445Z,50.12
2023-12-13T18:22:45.926Z,50.41
2023-12-13T18:25:13.098Z,51.07
2023-12-13T18:27:39.658Z,50.84
2023-12-13T18:30:06.796Z,50.66
2023-12-13T18:32:33.757Z,50.49
2023-12-13T18:35:00.487Z,50.36
2023-12-13T18:37:29.593Z,50.34
2023-12-13T18:39:57.517Z,50.26
2023-12-13T18:42:24.237Z,50.27
2023-12-13T18:44:52.840Z,50.13
2023-12-13T18:47:19.707Z,50.10
2023-12-13T18:49:46.162Z,50.13
2023-12-13T18:52:12.812Z,50.08
2023-12-13T18:54:39.226Z,50.04
2023-12-13T18:57:06.093Z,49.97
2023-12-13T18:59:32.748Z,50.03
2023-12-13T19:01:59.703Z,50.04
2023-12-13T19:04:26.232Z,50.06
2023-12-13T19:06:52.717Z,50.07
2023-12-13T19:09:19.275Z,50.06
2023-12-13T19:11:45.820Z,50.46
2023-12-13T19:14:12.369Z,50.49
2023-12-13T19:16:42.696Z,50.64
2023-12-13T19:19:09.316Z,50.39
2023-12-13T19:21:35.888Z,50.25
2023-12-13T19:24:02.359Z,50.39
2023-12-13T19:26:28.931Z,50.41
2023-12-13T19:29:03.807Z,50.44
2023-12-13T19:31:30.978Z,50.34
2023-12-13T19:33:57.468Z,50.36
2023-12-13T19:36:24.368Z,50.54
2023-12-13T19:38:50.762Z,50.37
2023-12-13T19:41:17.228Z,50.46
2023-12-13T19:43:43.821Z,50.33
2023-12-13T19:46:10.288Z,50.47
2023-12-13T19:48:36.852Z,50.44
2023-12-13T19:51:03.570Z,50.37
2023-12-13T19:53:30.045Z,50.40
2023-12-13T19:55:57.081Z,50.33
2023-12-13T19:58:23.525Z,50.39
2023-12-13T20:00:50.063Z,50.35
2023-12-13T20:03:16.864Z,50.41
2023-12-13T20:05:43.409Z,50.42
2023-12-13T20:08:10.024Z,50.36
2023-12-13T20:10:36.479Z,50.30
2023-12-13T20:13:02.965Z,50.43
2023-12-13T20:15:29.745Z,50.60
2023-12-13T20:17:56.239Z,50.52
2023-12-13T20:20:22.775Z,50.79
2023-12-13T20:22:49.243Z,50.60
2023-12-13T20:25:15.814Z,51.89
2023-12-13T20:27:42.478Z,50.81
2023-12-13T20:30:09.958Z,50.62
2023-12-13T20:32:38.864Z,50.64
2023-12-13T20:35:06.535Z,50.68
2023-12-13T20:37:33.404Z,50.77
2023-12-13T20:40:00.158Z,50.73
2023-12-13T20:42:27.668Z,50.75
2023-12-13T20:44:54.209Z,50.91
2023-12-13T20:47:20.702Z,50.91
2023-12-13T20:49:47.337Z,51.16
2023-12-13T20:52:13.814Z,50.94
2023-12-13T20:54:40.719Z,50.95
2023-12-13T20:57:07.141Z,50.88
2023-12-13T20:59:34.679Z,50.83
2023-12-13T21:02:01.304Z,50.98
2023-12-13T21:04:27.872Z,50.87
2023-12-13T21:06:54.330Z,50.96
2023-12-13T21:09:20.753Z,50.89
2023-12-13T21:11:47.217Z,51.02
2023-12-13T21:14:13.685Z,50.93
2023-12-13T21:16:41.720Z,51.04
2023-12-13T21:19:09.788Z,51.10
2023-12-13T21:21:36.330Z,51.14
2023-12-13T21:24:10.501Z,51.14
2023-12-13T21:26:43.743Z,51.21
2023-12-13T21:29:11.163Z,51.18
2023-12-13T21:31:43.584Z,51.18
2023-12-13T21:34:10.489Z,51.19
2023-12-13T21:36:37.037Z,51.25
2023-12-13T21:39:03.813Z,51.30
2023-12-13T21:41:31.495Z,51.32
2023-12-13T21:43:57.996Z,51.33
2023-12-13T21:46:25.672Z,51.33
2023-12-13T21:48:53.217Z,51.37
2023-12-13T21:51:19.970Z,51.34
2023-12-13T21:53:49.272Z,51.40
2023-12-13T21:56:16.456Z,51.37
2023-12-13T21:58:43.311Z,51.39
2023-12-13T22:01:09.854Z,51.37
2023-12-13T22:03:36.909Z,51.33
2023-12-13T22:06:07.220Z,51.40
2023-12-13T22:08:36.791Z,51.36
2023-12-13T22:11:03.383Z,51.31
2023-12-13T22:13:32.888Z,51.34
2023-12-13T22:16:01.874Z,51.31
2023-12-13T22:18:39.469Z,51.31
2023-12-13T22:21:09.144Z,51.27
2023-12-13T22:23:44.370Z,51.34
2023-12-13T22:26:16.657Z,51.24
2023-12-13T22:28:43.100Z,51.35
2023-12-13T22:31:09.548Z,51.29
2023-12-13T22:33:36.154Z,51.24
2023-12-13T22:36:02.766Z,51.17
2023-12-13T22:38:29.191Z,51.19
2023-12-13T22:40:55.725Z,51.24
2023-12-13T22:43:22.325Z,51.25
2023-12-13T22:45:48.764Z,51.56
2023-12-13T22:48:15.221Z,52.31
2023-12-13T22:50:43.806Z,52.29
2023-12-13T22:53:10.561Z,52.16
2023-12-13T22:55:37.037Z,51.84
2023-12-13T22:58:03.604Z,51.93
2023-12-13T23:00:30.053Z,51.86
2023-12-13T23:02:56.725Z,51.91
2023-12-13T23:05:23.563Z,51.83
2023-12-13T23:07:50.438Z,51.86
2023-12-13T23:10:18.196Z,51.83
2023-12-13T23:12:45.394Z,51.82
2023-12-13T23:15:11.831Z,51.82
2023-12-13T23:17:38.418Z,51.85
2023-12-13T23:20:06.426Z,51.77
2023-12-13T23:22:33.168Z,51.83
2023-12-13T23:25:00.796Z,51.77
2023-12-13T23:27:27.205Z,51.76
2023-12-13T23:29:53.632Z,51.67
2023-12-13T23:32:20.102Z,51.75
2023-12-13T23:34:46.605Z,51.83
2023-12-13T23:37:13.055Z,51.80
2023-12-13T23:39:39.476Z,51.77
2023-12-13T23:42:06.681Z,51.77
2023-12-13T23:44:33.199Z,51.72
2023-12-13T23:46:59.822Z,51.73
2023-12-13T23:49:26.358Z,51.66
2023-12-13T23:51:52.979Z,51.53
2023-12-13T23:54:19.425Z,51.71
2023-12-13T23:56:46.038Z,51.57
2023-12-13T23:59:12.515Z,51.61
